sensor_id;sensor_type;location;lat;lon;timestamp;P1;durP1;ratioP1;P2;durP2;ratioP2
15555;SDS011;7879;48.660;9.116;2023-03-11T00:00:19;0.30;;;0.30;;
15555;SDS011;7879;48.660;9.116;2023-03-11T00:02:49;0.30;;;0.30;;
15555;SDS011;7879;48.660;9.116;2023-03-11T00:05:19;0.40;;;0.40;;
15555;SDS011;7879;48.660;9.116;2023-03-11T00:07:48;0.35;;;0.35;;
15555;SDS011;7879;48.660;9.116;2023-03-11T00:10:17;0.40;;;0.40;;
15555;SDS011;7879;48.660;9.116;2023-03-11T00:12:46;0.40;;;0.40;;
15555;SDS011;7879;48.660;9.116;2023-03-11T00:15:13;0.40;;;0.40;;
15555;SDS011;7879;48.660;9.116;2023-03-11T00:17:40;0.30;;;0.30;;
15555;SDS011;7879;48.660;9.116;2023-03-11T00:20:14;0.40;;;0.40;;
15555;SDS011;7879;48.660;9.116;2023-03-11T00:22:47;0.40;;;0.40;;
15555;SDS011;7879;48.660;9.116;2023-03-11T00:25:17;0.40;;;0.40;;
15555;SDS011;7879;48.660;9.116;2023-03-11T00:27:44;0.40;;;0.40;;
15555;SDS011;7879;48.660;9.116;2023-03-11T00:30:11;0.40;;;0.40;;
15555;SDS011;7879;48.660;9.116;2023-03-11T00:32:39;0.40;;;0.40;;
15555;SDS011;7879;48.660;9.116;2023-03-11T00:35:06;0.40;;;0.40;;
15555;SDS011;7879;48.660;9.116;2023-03-11T00:37:36;0.30;;;0.30;;
15555;SDS011;7879;48.660;9.116;2023-03-11T00:40:03;0.30;;;0.30;;
15555;SDS011;7879;48.660;9.116;2023-03-11T00:42:34;0.30;;;0.30;;
15555;SDS011;7879;48.660;9.116;2023-03-11T00:45:00;0.20;;;0.20;;
15555;SDS011;7879;48.660;9.116;2023-03-11T00:47:27;0.30;;;0.30;;
15555;SDS011;7879;48.660;9.116;2023-03-11T00:49:54;0.30;;;0.30;;
15555;SDS011;7879;48.660;9.116;2023-03-11T00:52:20;0.30;;;0.30;;
15555;SDS011;7879;48.660;9.116;2023-03-11T00:54:49;0.30;;;0.30;;
15555;SDS011;7879;48.660;9.116;2023-03-11T00:57:16;0.30;;;0.30;;
15555;SDS011;7879;48.660;9.116;2023-03-11T00:59:43;0.30;;;0.30;;
15555;SDS011;7879;48.660;9.116;2023-03-11T01:02:10;0.30;;;0.30;;
15555;SDS011;7879;48.660;9.116;2023-03-11T01:04:37;0.30;;;0.30;;
15555;SDS011;7879;48.660;9.116;2023-03-11T01:07:03;0.32;;;0.32;;
15555;SDS011;7879;48.660;9.116;2023-03-11T01:09:31;0.30;;;0.30;;
15555;SDS011;7879;48.660;9.116;2023-03-11T01:11:57;0.30;;;0.30;;
15555;SDS011;7879;48.660;9.116;2023-03-11T01:14:24;0.30;;;0.30;;
15555;SDS011;7879;48.660;9.116;2023-03-11T01:16:51;0.30;;;0.30;;
15555;SDS011;7879;48.660;9.116;2023-03-11T01:19:19;0.40;;;0.40;;
15555;SDS011;7879;48.660;9.116;2023-03-11T01:21:45;0.30;;;0.30;;
15555;SDS011;7879;48.660;9.116;2023-03-11T01:24:12;0.40;;;0.40;;
15555;SDS011;7879;48.660;9.116;2023-03-11T01:26:39;0.40;;;0.40;;
15555;SDS011;7879;48.660;9.116;2023-03-11T01:29:06;0.30;;;0.30;;
15555;SDS011;7879;48.660;9.116;2023-03-11T01:31:33;0.40;;;0.40;;
15555;SDS011;7879;48.660;9.116;2023-03-11T01:34:00;0.30;;;0.30;;
15555;SDS011;7879;48.660;9.116;2023-03-11T01:36:26;0.40;;;0.40;;
15555;SDS011;7879;48.660;9.116;2023-03-11T01:38:53;0.40;;;0.40;;
15555;SDS011;7879;48.660;9.116;2023-03-11T01:41:20;0.40;;;0.40;;
15555;SDS011;7879;48.660;9.116;2023-03-11T01:43:48;0.40;;;0.40;;
15555;SDS011;7879;48.660;9.116;2023-03-11T01:46:21;0.40;;;0.40;;
15555;SDS011;7879;48.660;9.116;2023-03-11T01:48:53;0.40;;;0.40;;
15555;SDS011;7879;48.660;9.116;2023-03-11T01:51:32;0.40;;;0.40;;
15555;SDS011;7879;48.660;9.116;2023-03-11T01:54:04;0.40;;;0.40;;
15555;SDS011;7879;48.660;9.116;2023-03-11T01:56:35;0.30;;;0.30;;
15555;SDS011;7879;48.660;9.116;2023-03-11T01:59:04;0.40;;;0.40;;
15555;SDS011;7879;48.660;9.116;2023-03-11T02:01:34;0.40;;;0.40;;
15555;SDS011;7879;48.660;9.116;2023-03-11T02:04:07;0.40;;;0.40;;
15555;SDS011;7879;48.660;9.116;2023-03-11T02:06:34;0.40;;;0.40;;
15555;SDS011;7879;48.660;9.116;2023-03-11T02:09:01;0.40;;;0.40;;
15555;SDS011;7879;48.660;9.116;2023-03-11T02:11:28;0.32;;;0.32;;
15555;SDS011;7879;48.660;9.116;2023-03-11T02:13:58;0.30;;;0.30;;
15555;SDS011;7879;48.660;9.116;2023-03-11T02:16:28;0.30;;;0.30;;
15555;SDS011;7879;48.660;9.116;2023-03-11T02:18:56;0.30;;;0.30;;
15555;SDS011;7879;48.660;9.116;2023-03-11T02:21:29;0.30;;;0.30;;
15555;SDS011;7879;48.660;9.116;2023-03-11T02:27:07;0.40;;;0.40;;
15555;SDS011;7879;48.660;9.116;2023-03-11T02:29:35;0.40;;;0.40;;
15555;SDS011;7879;48.660;9.116;2023-03-11T02:32:05;0.40;;;0.40;;
15555;SDS011;7879;48.660;9.116;2023-03-11T02:34:34;0.40;;;0.40;;
15555;SDS011;7879;48.660;9.116;2023-03-11T02:37:04;0.30;;;0.30;;
15555;SDS011;7879;48.660;9.116;2023-03-11T02:39:34;0.40;;;0.40;;
15555;SDS011;7879;48.660;9.116;2023-03-11T02:44:39;0.40;;;0.40;;
15555;SDS011;7879;48.660;9.116;2023-03-11T02:47:09;0.40;;;0.40;;
15555;SDS011;7879;48.660;9.116;2023-03-11T02:49:36;0.40;;;0.40;;
15555;SDS011;7879;48.660;9.116;2023-03-11T02:52:04;0.38;;;0.38;;
15555;SDS011;7879;48.660;9.116;2023-03-11T02:54:31;0.30;;;0.30;;
15555;SDS011;7879;48.660;9.116;2023-03-11T02:56:58;0.30;;;0.30;;
15555;SDS011;7879;48.660;9.116;2023-03-11T02:59:25;0.30;;;0.30;;
15555;SDS011;7879;48.660;9.116;2023-03-11T03:01:53;0.30;;;0.30;;
15555;SDS011;7879;48.660;9.116;2023-03-11T03:04:19;0.30;;;0.30;;
15555;SDS011;7879;48.660;9.116;2023-03-11T03:06:46;0.40;;;0.40;;
15555;SDS011;7879;48.660;9.116;2023-03-11T03:09:13;0.40;;;0.40;;
15555;SDS011;7879;48.660;9.116;2023-03-11T03:11:40;0.40;;;0.40;;
15555;SDS011;7879;48.660;9.116;2023-03-11T03:14:06;0.40;;;0.40;;
15555;SDS011;7879;48.660;9.116;2023-03-11T03:16:33;0.40;;;0.40;;
15555;SDS011;7879;48.660;9.116;2023-03-11T03:19:00;0.30;;;0.30;;
15555;SDS011;7879;48.660;9.116;2023-03-11T03:21:27;0.30;;;0.30;;
15555;SDS011;7879;48.660;9.116;2023-03-11T03:23:53;0.30;;;0.30;;
15555;SDS011;7879;48.660;9.116;2023-03-11T03:26:20;0.30;;;0.30;;
15555;SDS011;7879;48.660;9.116;2023-03-11T03:28:47;0.40;;;0.40;;
15555;SDS011;7879;48.660;9.116;2023-03-11T03:31:14;0.40;;;0.40;;
15555;SDS011;7879;48.660;9.116;2023-03-11T03:33:41;0.40;;;0.40;;
15555;SDS011;7879;48.660;9.116;2023-03-11T03:36:08;0.40;;;0.40;;
15555;SDS011;7879;48.660;9.116;2023-03-11T03:38:37;0.30;;;0.30;;
15555;SDS011;7879;48.660;9.116;2023-03-11T03:41:04;0.30;;;0.30;;
15555;SDS011;7879;48.660;9.116;2023-03-11T03:43:31;0.30;;;0.30;;
15555;SDS011;7879;48.660;9.116;2023-03-11T03:45:59;0.30;;;0.30;;
15555;SDS011;7879;48.660;9.116;2023-03-11T03:48:27;0.40;;;0.40;;
15555;SDS011;7879;48.660;9.116;2023-03-11T03:50:55;0.40;;;0.40;;
15555;SDS011;7879;48.660;9.116;2023-03-11T03:53:22;0.40;;;0.40;;
15555;SDS011;7879;48.660;9.116;2023-03-11T03:55:48;0.40;;;0.40;;
15555;SDS011;7879;48.660;9.116;2023-03-11T03:58:16;0.30;;;0.30;;
15555;SDS011;7879;48.660;9.116;2023-03-11T04:00:42;0.30;;;0.30;;
15555;SDS011;7879;48.660;9.116;2023-03-11T04:03:09;0.30;;;0.30;;
15555;SDS011;7879;48.660;9.116;2023-03-11T04:05:36;0.40;;;0.40;;
15555;SDS011;7879;48.660;9.116;2023-03-11T04:08:03;0.40;;;0.40;;
15555;SDS011;7879;48.660;9.116;2023-03-11T04:10:30;0.47;;;0.47;;
15555;SDS011;7879;48.660;9.116;2023-03-11T04:12:57;0.30;;;0.30;;
15555;SDS011;7879;48.660;9.116;2023-03-11T04:15:23;0.30;;;0.30;;
15555;SDS011;7879;48.660;9.116;2023-03-11T04:17:51;0.30;;;0.30;;
15555;SDS011;7879;48.660;9.116;2023-03-11T04:20:17;0.30;;;0.30;;
15555;SDS011;7879;48.660;9.116;2023-03-11T04:22:44;0.40;;;0.40;;
15555;SDS011;7879;48.660;9.116;2023-03-11T04:25:11;0.40;;;0.40;;
15555;SDS011;7879;48.660;9.116;2023-03-11T04:27:38;0.43;;;0.43;;
15555;SDS011;7879;48.660;9.116;2023-03-11T04:30:08;0.40;;;0.40;;
15555;SDS011;7879;48.660;9.116;2023-03-11T04:32:35;0.30;;;0.30;;
15555;SDS011;7879;48.660;9.116;2023-03-11T04:35:02;0.30;;;0.30;;
15555;SDS011;7879;48.660;9.116;2023-03-11T04:37:30;0.40;;;0.40;;
15555;SDS011;7879;48.660;9.116;2023-03-11T04:39:57;0.40;;;0.40;;
15555;SDS011;7879;48.660;9.116;2023-03-11T04:42:24;0.45;;;0.45;;
15555;SDS011;7879;48.660;9.116;2023-03-11T04:44:50;0.30;;;0.30;;
15555;SDS011;7879;48.660;9.116;2023-03-11T04:47:17;0.30;;;0.30;;
15555;SDS011;7879;48.660;9.116;2023-03-11T04:49:44;0.40;;;0.40;;
15555;SDS011;7879;48.660;9.116;2023-03-11T04:52:11;0.40;;;0.40;;
15555;SDS011;7879;48.660;9.116;2023-03-11T04:54:37;0.40;;;0.40;;
15555;SDS011;7879;48.660;9.116;2023-03-11T04:57:05;0.40;;;0.40;;
15555;SDS011;7879;48.660;9.116;2023-03-11T04:59:32;0.30;;;0.30;;
15555;SDS011;7879;48.660;9.116;2023-03-11T05:01:58;0.30;;;0.30;;
15555;SDS011;7879;48.660;9.116;2023-03-11T05:04:25;0.40;;;0.40;;
15555;SDS011;7879;48.660;9.116;2023-03-11T05:06:52;0.40;;;0.40;;
15555;SDS011;7879;48.660;9.116;2023-03-11T05:09:19;0.38;;;0.38;;
15555;SDS011;7879;48.660;9.116;2023-03-11T05:11:46;0.30;;;0.30;;
15555;SDS011;7879;48.660;9.116;2023-03-11T05:14:13;0.40;;;0.40;;
15555;SDS011;7879;48.660;9.116;2023-03-11T05:16:39;0.40;;;0.40;;
15555;SDS011;7879;48.660;9.116;2023-03-11T05:19:06;0.50;;;0.50;;
15555;SDS011;7879;48.660;9.116;2023-03-11T05:21:53;0.47;;;0.47;;
15555;SDS011;7879;48.660;9.116;2023-03-11T05:24:20;0.30;;;0.30;;
15555;SDS011;7879;48.660;9.116;2023-03-11T05:26:47;0.40;;;0.40;;
15555;SDS011;7879;48.660;9.116;2023-03-11T05:29:13;0.40;;;0.40;;
15555;SDS011;7879;48.660;9.116;2023-03-11T05:31:40;0.40;;;0.40;;
15555;SDS011;7879;48.660;9.116;2023-03-11T05:34:07;0.30;;;0.30;;
15555;SDS011;7879;48.660;9.116;2023-03-11T05:36:34;0.40;;;0.40;;
15555;SDS011;7879;48.660;9.116;2023-03-11T05:39:01;0.40;;;0.40;;
15555;SDS011;7879;48.660;9.116;2023-03-11T05:41:27;0.40;;;0.40;;
15555;SDS011;7879;48.660;9.116;2023-03-11T05:43:54;0.40;;;0.40;;
15555;SDS011;7879;48.660;9.116;2023-03-11T05:46:21;0.30;;;0.30;;
15555;SDS011;7879;48.660;9.116;2023-03-11T05:48:48;0.30;;;0.30;;
15555;SDS011;7879;48.660;9.116;2023-03-11T05:51:15;0.32;;;0.32;;
15555;SDS011;7879;48.660;9.116;2023-03-11T05:53:42;0.40;;;0.40;;
15555;SDS011;7879;48.660;9.116;2023-03-11T05:56:14;0.47;;;0.47;;
15555;SDS011;7879;48.660;9.116;2023-03-11T05:58:41;0.40;;;0.40;;
15555;SDS011;7879;48.660;9.116;2023-03-11T06:01:09;0.30;;;0.30;;
15555;SDS011;7879;48.660;9.116;2023-03-11T06:03:37;0.40;;;0.40;;
15555;SDS011;7879;48.660;9.116;2023-03-11T06:06:05;0.40;;;0.40;;
15555;SDS011;7879;48.660;9.116;2023-03-11T06:08:34;0.40;;;0.40;;
15555;SDS011;7879;48.660;9.116;2023-03-11T06:11:02;0.45;;;0.45;;
15555;SDS011;7879;48.660;9.116;2023-03-11T06:13:30;0.30;;;0.30;;
15555;SDS011;7879;48.660;9.116;2023-03-11T06:15:57;0.40;;;0.40;;
15555;SDS011;7879;48.660;9.116;2023-03-11T06:18:24;0.40;;;0.40;;
15555;SDS011;7879;48.660;9.116;2023-03-11T06:20:52;0.40;;;0.40;;
15555;SDS011;7879;48.660;9.116;2023-03-11T06:23:22;0.40;;;0.40;;
15555;SDS011;7879;48.660;9.116;2023-03-11T06:25:55;0.30;;;0.30;;
15555;SDS011;7879;48.660;9.116;2023-03-11T06:28:27;0.30;;;0.30;;
15555;SDS011;7879;48.660;9.116;2023-03-11T06:30:54;0.30;;;0.30;;
15555;SDS011;7879;48.660;9.116;2023-03-11T06:33:24;0.40;;;0.40;;
15555;SDS011;7879;48.660;9.116;2023-03-11T06:36:00;0.40;;;0.40;;
15555;SDS011;7879;48.660;9.116;2023-03-11T06:38:28;0.30;;;0.30;;
15555;SDS011;7879;48.660;9.116;2023-03-11T06:41:02;0.30;;;0.30;;
15555;SDS011;7879;48.660;9.116;2023-03-11T06:43:30;0.30;;;0.30;;
15555;SDS011;7879;48.660;9.116;2023-03-11T06:45:58;0.30;;;0.30;;
15555;SDS011;7879;48.660;9.116;2023-03-11T06:48:26;0.40;;;0.40;;
15555;SDS011;7879;48.660;9.116;2023-03-11T06:50:54;0.40;;;0.40;;
15555;SDS011;7879;48.660;9.116;2023-03-11T06:53:25;0.38;;;0.38;;
15555;SDS011;7879;48.660;9.116;2023-03-11T06:56:00;0.30;;;0.30;;
15555;SDS011;7879;48.660;9.116;2023-03-11T06:58:29;0.30;;;0.30;;
15555;SDS011;7879;48.660;9.116;2023-03-11T07:01:00;0.30;;;0.30;;
15555;SDS011;7879;48.660;9.116;2023-03-11T07:03:28;0.30;;;0.30;;
15555;SDS011;7879;48.660;9.116;2023-03-11T07:05:56;0.40;;;0.40;;
15555;SDS011;7879;48.660;9.116;2023-03-11T07:08:23;0.40;;;0.40;;
15555;SDS011;7879;48.660;9.116;2023-03-11T07:13:28;0.40;;;0.40;;
15555;SDS011;7879;48.660;9.116;2023-03-11T07:15:59;0.32;;;0.32;;
15555;SDS011;7879;48.660;9.116;2023-03-11T07:18:30;0.30;;;0.30;;
15555;SDS011;7879;48.660;9.116;2023-03-11T07:20:57;0.30;;;0.30;;
15555;SDS011;7879;48.660;9.116;2023-03-11T07:23:26;0.30;;;0.30;;
15555;SDS011;7879;48.660;9.116;2023-03-11T07:25:52;0.30;;;0.30;;
15555;SDS011;7879;48.660;9.116;2023-03-11T07:28:21;0.30;;;0.30;;
15555;SDS011;7879;48.660;9.116;2023-03-11T07:30:49;0.30;;;0.30;;
15555;SDS011;7879;48.660;9.116;2023-03-11T07:33:15;0.30;;;0.30;;
15555;SDS011;7879;48.660;9.116;2023-03-11T07:35:43;0.30;;;0.30;;
15555;SDS011;7879;48.660;9.116;2023-03-11T07:38:10;0.30;;;0.30;;
15555;SDS011;7879;48.660;9.116;2023-03-11T07:40:37;0.30;;;0.30;;
15555;SDS011;7879;48.660;9.116;2023-03-11T07:43:04;0.40;;;0.40;;
15555;SDS011;7879;48.660;9.116;2023-03-11T07:45:31;0.40;;;0.40;;
15555;SDS011;7879;48.660;9.116;2023-03-11T07:47:57;0.40;;;0.40;;
15555;SDS011;7879;48.660;9.116;2023-03-11T07:50:24;0.30;;;0.30;;
15555;SDS011;7879;48.660;9.116;2023-03-11T07:52:51;0.40;;;0.40;;
15555;SDS011;7879;48.660;9.116;2023-03-11T07:55:18;0.40;;;0.40;;
15555;SDS011;7879;48.660;9.116;2023-03-11T07:57:48;0.38;;;0.38;;
15555;SDS011;7879;48.660;9.116;2023-03-11T08:00:16;0.30;;;0.30;;
15555;SDS011;7879;48.660;9.116;2023-03-11T08:02:44;0.30;;;0.30;;
15555;SDS011;7879;48.660;9.116;2023-03-11T08:05:10;0.30;;;0.30;;
15555;SDS011;7879;48.660;9.116;2023-03-11T08:07:38;0.30;;;0.30;;
15555;SDS011;7879;48.660;9.116;2023-03-11T08:10:05;0.30;;;0.30;;
15555;SDS011;7879;48.660;9.116;2023-03-11T08:12:32;0.40;;;0.40;;
15555;SDS011;7879;48.660;9.116;2023-03-11T08:14:59;0.30;;;0.30;;
15555;SDS011;7879;48.660;9.116;2023-03-11T08:17:25;0.30;;;0.30;;
15555;SDS011;7879;48.660;9.116;2023-03-11T08:19:52;0.30;;;0.30;;
15555;SDS011;7879;48.660;9.116;2023-03-11T08:22:19;0.38;;;0.38;;
15555;SDS011;7879;48.660;9.116;2023-03-11T08:24:49;0.30;;;0.30;;
15555;SDS011;7879;48.660;9.116;2023-03-11T08:27:17;0.30;;;0.30;;
15555;SDS011;7879;48.660;9.116;2023-03-11T08:29:44;0.30;;;0.30;;
15555;SDS011;7879;48.660;9.116;2023-03-11T08:32:10;0.30;;;0.30;;
15555;SDS011;7879;48.660;9.116;2023-03-11T08:34:37;0.20;;;0.20;;
15555;SDS011;7879;48.660;9.116;2023-03-11T08:37:05;0.20;;;0.20;;
15555;SDS011;7879;48.660;9.116;2023-03-11T08:39:32;0.20;;;0.20;;
15555;SDS011;7879;48.660;9.116;2023-03-11T08:41:59;0.22;;;0.22;;
15555;SDS011;7879;48.660;9.116;2023-03-11T08:44:26;0.30;;;0.30;;
15555;SDS011;7879;48.660;9.116;2023-03-11T08:46:53;0.30;;;0.30;;
15555;SDS011;7879;48.660;9.116;2023-03-11T08:49:20;0.20;;;0.20;;
15555;SDS011;7879;48.660;9.116;2023-03-11T08:51:46;0.20;;;0.20;;
15555;SDS011;7879;48.660;9.116;2023-03-11T08:54:13;0.30;;;0.30;;
15555;SDS011;7879;48.660;9.116;2023-03-11T08:56:40;0.30;;;0.30;;
15555;SDS011;7879;48.660;9.116;2023-03-11T08:59:06;0.30;;;0.30;;
15555;SDS011;7879;48.660;9.116;2023-03-11T09:01:33;0.30;;;0.30;;
15555;SDS011;7879;48.660;9.116;2023-03-11T09:04:00;0.20;;;0.20;;
15555;SDS011;7879;48.660;9.116;2023-03-11T09:06:27;0.13;;;0.13;;
15555;SDS011;7879;48.660;9.116;2023-03-11T09:08:55;0.30;;;0.30;;
15555;SDS011;7879;48.660;9.116;2023-03-11T09:11:22;0.20;;;0.20;;
15555;SDS011;7879;48.660;9.116;2023-03-11T09:13:50;0.20;;;0.20;;
15555;SDS011;7879;48.660;9.116;2023-03-11T09:16:18;0.20;;;0.20;;
15555;SDS011;7879;48.660;9.116;2023-03-11T09:18:46;0.28;;;0.28;;
15555;SDS011;7879;48.660;9.116;2023-03-11T09:21:13;0.20;;;0.20;;
15555;SDS011;7879;48.660;9.116;2023-03-11T09:23:40;0.20;;;0.20;;
15555;SDS011;7879;48.660;9.116;2023-03-11T09:26:09;0.30;;;0.30;;
15555;SDS011;7879;48.660;9.116;2023-03-11T09:28:36;0.20;;;0.20;;
15555;SDS011;7879;48.660;9.116;2023-03-11T09:31:04;0.20;;;0.20;;
15555;SDS011;7879;48.660;9.116;2023-03-11T09:33:30;0.13;;;0.13;;
15555;SDS011;7879;48.660;9.116;2023-03-11T09:36:01;0.20;;;0.20;;
15555;SDS011;7879;48.660;9.116;2023-03-11T09:38:28;0.10;;;0.10;;
15555;SDS011;7879;48.660;9.116;2023-03-11T09:46:24;0.10;;;0.10;;
15555;SDS011;7879;48.660;9.116;2023-03-11T09:52:14;0.10;;;0.10;;
15555;SDS011;7879;48.660;9.116;2023-03-11T09:54:44;0.10;;;0.10;;
15555;SDS011;7879;48.660;9.116;2023-03-11T09:57:14;0.10;;;0.10;;
15555;SDS011;7879;48.660;9.116;2023-03-11T09:59:46;0.10;;;0.10;;
15555;SDS011;7879;48.660;9.116;2023-03-11T10:02:14;0.20;;;0.20;;
15555;SDS011;7879;48.660;9.116;2023-03-11T10:04:49;0.17;;;0.17;;
15555;SDS011;7879;48.660;9.116;2023-03-11T10:07:24;0.20;;;0.20;;
15555;SDS011;7879;48.660;9.116;2023-03-11T10:09:58;0.20;;;0.20;;
15555;SDS011;7879;48.660;9.116;2023-03-11T10:17:58;0.20;;;0.20;;
15555;SDS011;7879;48.660;9.116;2023-03-11T10:26:18;0.10;;;0.10;;
15555;SDS011;7879;48.660;9.116;2023-03-11T10:28:51;0.10;;;0.10;;
15555;SDS011;7879;48.660;9.116;2023-03-11T10:31:25;0.10;;;0.10;;
15555;SDS011;7879;48.660;9.116;2023-03-11T10:33:55;0.10;;;0.10;;
15555;SDS011;7879;48.660;9.116;2023-03-11T10:36:34;0.10;;;0.10;;
15555;SDS011;7879;48.660;9.116;2023-03-11T10:39:16;0.10;;;0.10;;
15555;SDS011;7879;48.660;9.116;2023-03-11T10:41:58;0.10;;;0.10;;
15555;SDS011;7879;48.660;9.116;2023-03-11T10:44:28;0.10;;;0.10;;
15555;SDS011;7879;48.660;9.116;2023-03-11T10:46:56;0.10;;;0.10;;
15555;SDS011;7879;48.660;9.116;2023-03-11T10:49:23;0.10;;;0.10;;
15555;SDS011;7879;48.660;9.116;2023-03-11T10:51:51;0.10;;;0.10;;
15555;SDS011;7879;48.660;9.116;2023-03-11T10:54:20;0.10;;;0.10;;
15555;SDS011;7879;48.660;9.116;2023-03-11T10:57:08;0.10;;;0.10;;
15555;SDS011;7879;48.660;9.116;2023-03-11T11:04:48;0.10;;;0.10;;
15555;SDS011;7879;48.660;9.116;2023-03-11T11:07:30;0.10;;;0.10;;
15555;SDS011;7879;48.660;9.116;2023-03-11T11:10:18;0.00;;;0.00;;
15555;SDS011;7879;48.660;9.116;2023-03-11T11:17:57;0.00;;;0.00;;
15555;SDS011;7879;48.660;9.116;2023-03-11T11:20:28;0.00;;;0.00;;
15555;SDS011;7879;48.660;9.116;2023-03-11T11:23:00;0.00;;;0.00;;
15555;SDS011;7879;48.660;9.116;2023-03-11T11:28:19;0.00;;;0.00;;
15555;SDS011;7879;48.660;9.116;2023-03-11T11:30:53;0.00;;;0.00;;
15555;SDS011;7879;48.660;9.116;2023-03-11T11:35:56;0.03;;;0.03;;
15555;SDS011;7879;48.660;9.116;2023-03-11T11:38:26;0.10;;;0.10;;
15555;SDS011;7879;48.660;9.116;2023-03-11T11:40:55;0.10;;;0.10;;
15555;SDS011;7879;48.660;9.116;2023-03-11T11:46:24;0.10;;;0.10;;
15555;SDS011;7879;48.660;9.116;2023-03-11T11:54:15;0.10;;;0.10;;
15555;SDS011;7879;48.660;9.116;2023-03-11T11:56:54;0.10;;;0.10;;
15555;SDS011;7879;48.660;9.116;2023-03-11T11:59:22;0.10;;;0.10;;
15555;SDS011;7879;48.660;9.116;2023-03-11T12:02:03;0.10;;;0.10;;
15555;SDS011;7879;48.660;9.116;2023-03-11T12:10:01;0.10;;;0.10;;
15555;SDS011;7879;48.660;9.116;2023-03-11T12:18:48;0.10;;;0.10;;
15555;SDS011;7879;48.660;9.116;2023-03-11T12:26:51;0.00;;;0.00;;
15555;SDS011;7879;48.660;9.116;2023-03-11T12:29:23;0.00;;;0.00;;
15555;SDS011;7879;48.660;9.116;2023-03-11T12:32:37;0.00;;;0.00;;
15555;SDS011;7879;48.660;9.116;2023-03-11T12:35:18;0.00;;;0.00;;
15555;SDS011;7879;48.660;9.116;2023-03-11T12:37:56;0.00;;;0.00;;
15555;SDS011;7879;48.660;9.116;2023-03-11T12:46:00;0.00;;;0.00;;
15555;SDS011;7879;48.660;9.116;2023-03-11T12:57:04;0.10;;;0.10;;
15555;SDS011;7879;48.660;9.116;2023-03-11T13:02:43;0.10;;;0.10;;
15555;SDS011;7879;48.660;9.116;2023-03-11T13:08:13;0.10;;;0.10;;
15555;SDS011;7879;48.660;9.116;2023-03-11T13:10:51;0.10;;;0.10;;
15555;SDS011;7879;48.660;9.116;2023-03-11T13:18:41;0.10;;;0.10;;
15555;SDS011;7879;48.660;9.116;2023-03-11T13:26:54;0.10;;;0.10;;
15555;SDS011;7879;48.660;9.116;2023-03-11T13:34:53;0.20;;;0.20;;
15555;SDS011;7879;48.660;9.116;2023-03-11T13:40:42;0.20;;;0.20;;
15555;SDS011;7879;48.660;9.116;2023-03-11T13:43:12;0.30;;;0.30;;
15555;SDS011;7879;48.660;9.116;2023-03-11T13:45:51;0.20;;;0.20;;
15555;SDS011;7879;48.660;9.116;2023-03-11T13:51:12;0.20;;;0.20;;
15555;SDS011;7879;48.660;9.116;2023-03-11T13:56:32;0.20;;;0.20;;
15555;SDS011;7879;48.660;9.116;2023-03-11T13:59:21;0.20;;;0.20;;
15555;SDS011;7879;48.660;9.116;2023-03-11T14:01:53;0.20;;;0.20;;
15555;SDS011;7879;48.660;9.116;2023-03-11T14:04:26;0.30;;;0.30;;
15555;SDS011;7879;48.660;9.116;2023-03-11T14:06:58;0.20;;;0.20;;
15555;SDS011;7879;48.660;9.116;2023-03-11T14:09:27;0.30;;;0.30;;
15555;SDS011;7879;48.660;9.116;2023-03-11T14:11:54;0.20;;;0.20;;
15555;SDS011;7879;48.660;9.116;2023-03-11T14:14:33;0.20;;;0.20;;
15555;SDS011;7879;48.660;9.116;2023-03-11T14:17:15;0.20;;;0.20;;
15555;SDS011;7879;48.660;9.116;2023-03-11T14:20:00;0.20;;;0.20;;
15555;SDS011;7879;48.660;9.116;2023-03-11T14:22:51;0.20;;;0.20;;
15555;SDS011;7879;48.660;9.116;2023-03-11T14:25:21;0.30;;;0.30;;
15555;SDS011;7879;48.660;9.116;2023-03-11T14:27:57;0.20;;;0.20;;
15555;SDS011;7879;48.660;9.116;2023-03-11T14:30:30;0.20;;;0.20;;
15555;SDS011;7879;48.660;9.116;2023-03-11T14:33:20;0.20;;;0.20;;
15555;SDS011;7879;48.660;9.116;2023-03-11T14:38:26;0.20;;;0.20;;
15555;SDS011;7879;48.660;9.116;2023-03-11T14:41:04;0.20;;;0.20;;
15555;SDS011;7879;48.660;9.116;2023-03-11T14:43:33;0.30;;;0.30;;
15555;SDS011;7879;48.660;9.116;2023-03-11T14:46:09;0.20;;;0.20;;
15555;SDS011;7879;48.660;9.116;2023-03-11T14:48:45;0.30;;;0.30;;
15555;SDS011;7879;48.660;9.116;2023-03-11T14:51:13;0.20;;;0.20;;
15555;SDS011;7879;48.660;9.116;2023-03-11T14:53:44;0.20;;;0.20;;
15555;SDS011;7879;48.660;9.116;2023-03-11T14:56:18;0.30;;;0.30;;
15555;SDS011;7879;48.660;9.116;2023-03-11T14:59:05;0.20;;;0.20;;
15555;SDS011;7879;48.660;9.116;2023-03-11T15:01:41;0.30;;;0.30;;
15555;SDS011;7879;48.660;9.116;2023-03-11T15:04:19;0.20;;;0.20;;
15555;SDS011;7879;48.660;9.116;2023-03-11T15:06:54;0.23;;;0.23;;
15555;SDS011;7879;48.660;9.116;2023-03-11T15:09:22;0.20;;;0.20;;
15555;SDS011;7879;48.660;9.116;2023-03-11T15:11:51;0.20;;;0.20;;
15555;SDS011;7879;48.660;9.116;2023-03-11T15:14:26;0.20;;;0.20;;
15555;SDS011;7879;48.660;9.116;2023-03-11T15:17:15;0.20;;;0.20;;
15555;SDS011;7879;48.660;9.116;2023-03-11T15:19:59;0.20;;;0.20;;
15555;SDS011;7879;48.660;9.116;2023-03-11T15:22:36;0.20;;;0.20;;
15555;SDS011;7879;48.660;9.116;2023-03-11T15:25:15;0.20;;;0.20;;
15555;SDS011;7879;48.660;9.116;2023-03-11T15:27:43;0.25;;;0.25;;
15555;SDS011;7879;48.660;9.116;2023-03-11T15:30:16;0.20;;;0.20;;
15555;SDS011;7879;48.660;9.116;2023-03-11T15:32:52;0.30;;;0.30;;
15555;SDS011;7879;48.660;9.116;2023-03-11T15:37:49;0.20;;;0.20;;
15555;SDS011;7879;48.660;9.116;2023-03-11T15:40:35;0.20;;;0.20;;
15555;SDS011;7879;48.660;9.116;2023-03-11T15:45:41;0.20;;;0.20;;
15555;SDS011;7879;48.660;9.116;2023-03-11T15:48:09;0.10;;;0.10;;
15555;SDS011;7879;48.660;9.116;2023-03-11T15:50:45;0.20;;;0.20;;
15555;SDS011;7879;48.660;9.116;2023-03-11T15:53:18;0.20;;;0.20;;
15555;SDS011;7879;48.660;9.116;2023-03-11T15:55:46;0.30;;;0.30;;
15555;SDS011;7879;48.660;9.116;2023-03-11T15:58:14;0.20;;;0.20;;
15555;SDS011;7879;48.660;9.116;2023-03-11T16:00:50;0.20;;;0.20;;
15555;SDS011;7879;48.660;9.116;2023-03-11T16:03:18;0.30;;;0.30;;
15555;SDS011;7879;48.660;9.116;2023-03-11T16:05:45;0.20;;;0.20;;
15555;SDS011;7879;48.660;9.116;2023-03-11T16:08:12;0.20;;;0.20;;
15555;SDS011;7879;48.660;9.116;2023-03-11T16:10:38;0.30;;;0.30;;
15555;SDS011;7879;48.660;9.116;2023-03-11T16:13:05;0.20;;;0.20;;
15555;SDS011;7879;48.660;9.116;2023-03-11T16:15:35;0.20;;;0.20;;
15555;SDS011;7879;48.660;9.116;2023-03-11T16:18:04;0.30;;;0.30;;
15555;SDS011;7879;48.660;9.116;2023-03-11T16:23:15;0.20;;;0.20;;
15555;SDS011;7879;48.660;9.116;2023-03-11T16:25:47;0.30;;;0.30;;
15555;SDS011;7879;48.660;9.116;2023-03-11T16:28:15;0.30;;;0.30;;
15555;SDS011;7879;48.660;9.116;2023-03-11T16:30:42;0.20;;;0.20;;
15555;SDS011;7879;48.660;9.116;2023-03-11T16:33:09;0.22;;;0.22;;
15555;SDS011;7879;48.660;9.116;2023-03-11T16:35:36;0.30;;;0.30;;
15555;SDS011;7879;48.660;9.116;2023-03-11T16:38:03;0.30;;;0.30;;
15555;SDS011;7879;48.660;9.116;2023-03-11T16:40:31;0.30;;;0.30;;
15555;SDS011;7879;48.660;9.116;2023-03-11T16:43:06;0.20;;;0.20;;
15555;SDS011;7879;48.660;9.116;2023-03-11T16:45:34;0.30;;;0.30;;
15555;SDS011;7879;48.660;9.116;2023-03-11T16:48:02;0.30;;;0.30;;
15555;SDS011;7879;48.660;9.116;2023-03-11T16:50:30;0.30;;;0.30;;
15555;SDS011;7879;48.660;9.116;2023-03-11T16:52:59;0.20;;;0.20;;
15555;SDS011;7879;48.660;9.116;2023-03-11T16:55:26;0.20;;;0.20;;
15555;SDS011;7879;48.660;9.116;2023-03-11T16:57:54;0.30;;;0.30;;
15555;SDS011;7879;48.660;9.116;2023-03-11T17:00:22;0.30;;;0.30;;
15555;SDS011;7879;48.660;9.116;2023-03-11T17:02:50;0.30;;;0.30;;
15555;SDS011;7879;48.660;9.116;2023-03-11T17:05:17;0.20;;;0.20;;
15555;SDS011;7879;48.660;9.116;2023-03-11T17:07:44;0.20;;;0.20;;
15555;SDS011;7879;48.660;9.116;2023-03-11T17:10:11;0.30;;;0.30;;
15555;SDS011;7879;48.660;9.116;2023-03-11T17:12:38;0.30;;;0.30;;
15555;SDS011;7879;48.660;9.116;2023-03-11T17:15:05;0.30;;;0.30;;
15555;SDS011;7879;48.660;9.116;2023-03-11T17:17:33;0.30;;;0.30;;
15555;SDS011;7879;48.660;9.116;2023-03-11T17:19:59;0.20;;;0.20;;